Alma, Illinois
Current Conditions -  °F | °C
As of 2:35 PM on Friday 28 Nov 2014 (Local Time) from KENL Reporting Station
Clear Clear  
Wind Chill: 36°   Ceiling: Unl
Heat Index: 44°   Visibility: 10mi
Dew Point: 31°   Wind: 18mph
Humidity: 62%   Direction: 170°S
Pressure: 30.04"   Gusts: 25mph
Location:  38.72°N, 88.91°W
Report Text: KENL 282035Z AUTO 17016G22KT 10SM CLR 07/00 A3004 RMK AO2 T00651004
Loading
Personal Weather Stations






























Interactive Weather Map New forecast layout! Learn more

10-Day Weather Forecast

Advertisements
Track Severe Weather on mobile